Thompsonville, Connecticut
Current Conditions -  °F | °C
As of 1:51 PM on Monday 20 Oct 2014 (Local Time) from KBDL Reporting Station
Broken Clouds Broken Clouds  
Wind Chill: 57°   Ceiling: 11000
Heat Index: 57°   Visibility: 10mi
Dew Point: 34°   Wind: 14mph
Humidity: 42%   Direction: 190°S
Pressure: 29.99"   Gusts: NA
Location:  41.9843°N, 72.5534°W
Report Text: KBDL 201751Z 19012KT 10SM BKN110 BKN250 14/01 A2999 RMK AO2 SLP156 T01390011 10139 20017 56029
Loading
Personal Weather Stations






























Interactive Weather Map
Tropical Storm Tracking
New forecast layout! Learn more

10-Day Weather Forecast

Advertisements
Track Severe Weather on mobile